createdAt,value
2022-11-16T00:02:14.747Z,100.00
2022-11-16T00:04:41.571Z,100.00
2022-11-16T00:07:08.229Z,100.00
2022-11-16T00:09:35.043Z,100.00
2022-11-16T00:12:07.148Z,100.00
2022-11-16T00:14:35.424Z,100.00
2022-11-16T00:17:02.201Z,100.00
2022-11-16T00:19:29.202Z,100.00
2022-11-16T00:21:55.863Z,100.00
2022-11-16T00:24:23.576Z,100.00
2022-11-16T00:26:50.285Z,100.00
2022-11-16T00:29:19.537Z,100.00
2022-11-16T00:31:47.042Z,100.00
2022-11-16T00:34:14.329Z,100.00
2022-11-16T00:36:40.915Z,100.00
2022-11-16T00:39:07.548Z,100.00
2022-11-16T00:41:34.009Z,100.00
2022-11-16T00:44:00.466Z,100.00
2022-11-16T00:46:27.330Z,100.00
2022-11-16T00:48:54.152Z,100.00
2022-11-16T00:51:20.687Z,100.00
2022-11-16T00:53:47.543Z,100.00
2022-11-16T00:56:14.126Z,100.00
2022-11-16T00:58:43.385Z,100.00
2022-11-16T01:01:14.035Z,100.00
2022-11-16T01:03:40.730Z,100.00
2022-11-16T01:06:13.593Z,100.00
2022-11-16T01:08:41.970Z,100.00
2022-11-16T01:11:28.761Z,100.00
2022-11-16T01:13:58.269Z,100.00
2022-11-16T01:16:24.976Z,100.00
2022-11-16T01:18:53.503Z,100.00
2022-11-16T01:21:20.701Z,100.00
2022-11-16T01:23:47.349Z,100.00
2022-11-16T01:26:13.889Z,100.00
2022-11-16T01:28:41.909Z,100.00
2022-11-16T01:31:10.812Z,100.00
2022-11-16T01:33:38.002Z,100.00
2022-11-16T01:36:14.743Z,100.00
2022-11-16T01:38:43.738Z,100.00
2022-11-16T01:41:16.784Z,100.00
2022-11-16T01:43:50.654Z,100.00
2022-11-16T01:46:17.143Z,100.00
2022-11-16T01:48:44.062Z,100.00
2022-11-16T01:51:11.107Z,100.00
2022-11-16T01:53:37.863Z,100.00
2022-11-16T01:56:05.291Z,100.00
2022-11-16T01:58:50.310Z,100.00
2022-11-16T02:01:22.239Z,100.00
2022-11-16T02:03:53.802Z,100.00
2022-11-16T02:06:23.410Z,100.00
2022-11-16T02:09:32.275Z,100.00
2022-11-16T02:12:27.729Z,100.00
2022-11-16T02:15:27.313Z,100.00
2022-11-16T02:18:26.533Z,100.00
2022-11-16T02:21:37.234Z,100.00
2022-11-16T02:24:12.830Z,100.00
2022-11-16T02:27:01.169Z,100.00
2022-11-16T02:29:37.105Z,100.00
2022-11-16T02:32:22.095Z,100.00
2022-11-16T02:35:04.715Z,100.00
2022-11-16T02:37:35.066Z,100.00
2022-11-16T02:40:07.843Z,100.00
2022-11-16T02:42:41.241Z,100.00
2022-11-16T02:45:12.535Z,100.00
2022-11-16T02:47:41.926Z,100.00
2022-11-16T02:50:16.369Z,100.00
2022-11-16T02:52:42.852Z,100.00
2022-11-16T02:55:11.428Z,100.00
2022-11-16T02:57:59.530Z,100.00
2022-11-16T03:00:33.631Z,100.00
2022-11-16T03:03:06.591Z,100.00
2022-11-16T03:05:45.497Z,100.00
2022-11-16T03:08:26.532Z,100.00
2022-11-16T03:11:16.970Z,100.00
2022-11-16T03:13:44.756Z,100.00
2022-11-16T03:16:19.325Z,100.00
2022-11-16T03:18:47.868Z,100.00
2022-11-16T03:21:21.433Z,100.00
2022-11-16T03:23:48.060Z,100.00
2022-11-16T03:26:19.141Z,100.00
2022-11-16T03:28:48.421Z,100.00
2022-11-16T03:31:23.112Z,100.00
2022-11-16T03:33:55.967Z,100.00
2022-11-16T03:36:35.633Z,100.00
2022-11-16T03:39:08.230Z,100.00
2022-11-16T03:41:37.120Z,100.00
2022-11-16T03:44:04.870Z,100.00
2022-11-16T03:46:31.668Z,100.00
2022-11-16T03:49:00.544Z,100.00
2022-11-16T03:51:31.122Z,100.00
2022-11-16T03:53:58.044Z,100.00
2022-11-16T03:56:24.791Z,100.00
2022-11-16T03:58:51.548Z,100.00
2022-11-16T04:01:18.157Z,100.00
2022-11-16T04:03:46.238Z,100.00
2022-11-16T04:06:31.454Z,100.00
2022-11-16T04:09:16.769Z,100.00
2022-11-16T04:12:02.287Z,100.00
2022-11-16T04:14:47.682Z,100.00
2022-11-16T04:17:37.156Z,100.00
2022-11-16T04:20:24.008Z,100.00
2022-11-16T04:23:33.379Z,100.00
2022-11-16T04:26:02.114Z,100.00
2022-11-16T04:28:33.844Z,100.00
2022-11-16T04:31:22.991Z,100.00
2022-11-16T04:34:19.897Z,100.00
2022-11-16T04:37:09.159Z,100.00
2022-11-16T04:39:35.629Z,100.00
2022-11-16T04:42:16.207Z,100.00
2022-11-16T04:45:04.355Z,100.00
2022-11-16T04:47:40.655Z,100.00
2022-11-16T04:50:07.574Z,100.00
2022-11-16T04:52:34.063Z,100.00
2022-11-16T04:55:00.545Z,100.00
2022-11-16T04:57:28.299Z,100.00
2022-11-16T04:59:55.624Z,100.00
2022-11-16T05:02:22.430Z,100.00
2022-11-16T05:04:53.469Z,100.00
2022-11-16T05:07:21.868Z,100.00
2022-11-16T05:09:50.244Z,100.00
2022-11-16T05:12:19.492Z,100.00
2022-11-16T05:14:48.268Z,100.00
2022-11-16T05:17:17.382Z,100.00
2022-11-16T05:20:03.696Z,100.00
2022-11-16T05:22:35.781Z,100.00
2022-11-16T05:25:04.617Z,100.00
2022-11-16T05:27:31.583Z,100.00
2022-11-16T05:29:58.734Z,100.00
2022-11-16T05:32:26.841Z,100.00
2022-11-16T05:34:57.675Z,100.00
2022-11-16T05:37:26.722Z,100.00
2022-11-16T05:39:56.933Z,100.00
2022-11-16T05:42:31.428Z,100.00
2022-11-16T05:44:58.354Z,100.00
2022-11-16T05:47:24.906Z,100.00
2022-11-16T05:49:51.546Z,100.00
2022-11-16T05:52:18.759Z,100.00
2022-11-16T05:54:45.810Z,100.00
2022-11-16T05:57:12.396Z,100.00
2022-11-16T05:59:39.013Z,100.00
2022-11-16T06:02:06.317Z,100.00
2022-11-16T06:04:34.165Z,100.00
2022-11-16T06:07:01.058Z,100.00
2022-11-16T06:09:31.649Z,100.00
2022-11-16T06:12:05.170Z,100.00
2022-11-16T06:14:31.944Z,100.00
2022-11-16T06:16:58.578Z,100.00
2022-11-16T06:19:29.593Z,100.00
2022-11-16T06:21:58.561Z,100.00
2022-11-16T06:24:27.452Z,100.00
2022-11-16T06:26:53.875Z,100.00
2022-11-16T06:29:20.960Z,100.00
2022-11-16T06:31:47.482Z,100.00
2022-11-16T06:34:14.143Z,100.00
2022-11-16T06:36:40.702Z,100.00
2022-11-16T06:39:07.248Z,100.00
2022-11-16T06:41:41.222Z,100.00
2022-11-16T06:44:09.411Z,100.00
2022-11-16T06:46:38.923Z,100.00
2022-11-16T06:49:05.410Z,100.00
2022-11-16T06:51:33.618Z,100.00
2022-11-16T06:54:00.176Z,100.00
2022-11-16T06:56:27.848Z,100.00
2022-11-16T06:58:57.196Z,100.00
2022-11-16T07:01:25.575Z,100.00
2022-11-16T07:03:58.198Z,100.00
2022-11-16T07:06:25.188Z,100.00
2022-11-16T07:08:51.803Z,100.00
2022-11-16T07:11:23.210Z,100.00
2022-11-16T07:13:49.737Z,100.00
2022-11-16T07:16:16.983Z,100.00
2022-11-16T07:18:50.524Z,100.00
2022-11-16T07:21:17.555Z,100.00
2022-11-16T07:23:45.335Z,100.00
2022-11-16T07:26:16.657Z,100.00
2022-11-16T07:28:49.105Z,100.00
2022-11-16T07:31:19.947Z,100.00
2022-11-16T07:34:04.715Z,100.00
2022-11-16T07:36:49.111Z,100.00
2022-11-16T07:39:16.871Z,100.00
2022-11-16T07:41:45.120Z,100.00
2022-11-16T07:44:22.162Z,100.00
2022-11-16T07:47:01.749Z,100.00
2022-11-16T07:49:29.992Z,100.00
2022-11-16T07:52:02.932Z,100.00
2022-11-16T07:54:41.263Z,100.00
2022-11-16T07:57:08.297Z,100.00
2022-11-16T07:59:35.011Z,100.00
2022-11-16T08:02:03.742Z,100.00
2022-11-16T08:04:30.614Z,100.00
2022-11-16T08:06:58.611Z,100.00
2022-11-16T08:09:27.500Z,100.00
2022-11-16T08:11:54.843Z,100.00
2022-11-16T08:14:23.082Z,100.00
2022-11-16T08:16:52.818Z,100.00
2022-11-16T08:19:19.343Z,100.00
2022-11-16T08:21:45.907Z,100.00
2022-11-16T08:24:13.997Z,100.00
2022-11-16T08:26:42.413Z,100.00
2022-11-16T08:29:12.041Z,100.00
2022-11-16T08:31:44.681Z,100.00
2022-11-16T08:34:13.899Z,100.00
2022-11-16T08:36:44.548Z,100.00
2022-11-16T08:39:12.004Z,100.00
2022-11-16T08:41:38.656Z,100.00
2022-11-16T08:44:07.717Z,100.00
2022-11-16T08:46:37.623Z,100.00
2022-11-16T08:49:17.151Z,100.00
2022-11-16T08:51:43.652Z,100.00
2022-11-16T08:54:10.355Z,100.00
2022-11-16T08:56:39.034Z,100.00
2022-11-16T08:59:05.667Z,100.00
2022-11-16T09:01:32.823Z,100.00
2022-11-16T09:04:00.273Z,100.00
2022-11-16T09:06:27.557Z,100.00
2022-11-16T09:08:54.590Z,100.00
2022-11-16T09:11:23.349Z,100.00
2022-11-16T09:13:51.979Z,100.00
2022-11-16T09:16:20.924Z,100.00
2022-11-16T09:18:49.471Z,100.00
2022-11-16T09:21:53.214Z,100.00
2022-11-16T09:24:19.690Z,100.00
2022-11-16T09:26:46.100Z,100.00
2022-11-16T09:29:14.586Z,100.00
2022-11-16T09:31:41.749Z,100.00
2022-11-16T09:34:08.616Z,100.00
2022-11-16T09:36:35.095Z,100.00
2022-11-16T09:39:29.087Z,100.00
2022-11-16T09:41:49.194Z,100.00
2022-11-16T09:44:49.514Z,100.00
2022-11-16T09:47:38.505Z,100.00
2022-11-16T09:50:06.414Z,100.00
2022-11-16T09:52:47.016Z,98.73
2022-11-16T09:55:37.523Z,99.58
2022-11-16T09:58:12.981Z,99.24
2022-11-16T10:00:46.578Z,96.89
2022-11-16T10:03:15.191Z,95.86
2022-11-16T10:05:56.521Z,100.00
2022-11-16T10:08:43.095Z,97.11
2022-11-16T10:11:38.619Z,94.48
2022-11-16T10:14:23.868Z,95.38
2022-11-16T10:17:01.799Z,94.79
2022-11-16T10:19:46.951Z,94.53
2022-11-16T10:22:19.493Z,94.63
2022-11-16T10:25:07.097Z,93.77
2022-11-16T10:27:52.272Z,92.92
2022-11-16T10:30:20.575Z,91.00
2022-11-16T10:32:49.165Z,83.54
2022-11-16T10:35:19.874Z,86.48
2022-11-16T10:37:50.910Z,86.45
2022-11-16T10:40:23.741Z,85.61
2022-11-16T10:42:57.711Z,85.04
2022-11-16T10:45:32.651Z,87.30
2022-11-16T10:48:28.515Z,88.87
2022-11-16T10:50:55.228Z,86.23
2022-11-16T10:53:38.311Z,87.35
2022-11-16T10:56:23.766Z,86.21
2022-11-16T10:59:05.003Z,80.88
2022-11-16T11:02:20.646Z,74.70
2022-11-16T11:05:02.100Z,73.36
2022-11-16T11:07:32.576Z,74.11
2022-11-16T11:09:59.906Z,65.56
2022-11-16T11:12:39.901Z,64.05
2022-11-16T11:15:13.293Z,60.96
2022-11-16T11:17:42.472Z,62.75
2022-11-16T11:20:15.092Z,65.85
2022-11-16T11:22:55.996Z,74.70
2022-11-16T11:25:32.285Z,76.88
2022-11-16T11:28:23.546Z,77.74
2022-11-16T11:31:22.515Z,78.32
2022-11-16T11:33:53.102Z,78.11
2022-11-16T11:36:38.456Z,79.68
2022-11-16T11:39:08.206Z,82.18
2022-11-16T11:41:38.832Z,81.63
2022-11-16T11:44:31.529Z,82.01
2022-11-16T11:50:21.798Z,80.17
2022-11-16T11:53:13.053Z,79.87
2022-11-16T11:55:39.647Z,81.49
2022-11-16T11:58:14.689Z,80.96
2022-11-16T12:01:24.887Z,79.47
2022-11-16T12:04:10.240Z,79.00
2022-11-16T12:07:21.667Z,80.41
2022-11-16T12:10:17.482Z,78.36
2022-11-16T12:13:14.901Z,78.44
2022-11-16T12:15:47.480Z,76.55
2022-11-16T12:18:32.602Z,77.25
2022-11-16T12:21:12.398Z,76.66
2022-11-16T12:23:59.997Z,78.17
2022-11-16T12:26:42.845Z,75.49
2022-11-16T12:29:28.082Z,77.76
2022-11-16T12:32:03.625Z,78.15
2022-11-16T12:34:48.986Z,75.32
2022-11-16T12:37:23.812Z,76.75
2022-11-16T12:40:24.247Z,76.41
2022-11-16T12:43:00.227Z,77.54
2022-11-16T12:45:50.630Z,77.58
2022-11-16T12:48:46.558Z,77.76
2022-11-16T12:51:16.141Z,77.79
2022-11-16T12:54:13.538Z,78.42
2022-11-16T12:56:58.312Z,79.23
2022-11-16T12:59:36.066Z,79.99
2022-11-16T13:02:23.703Z,80.24
2022-11-16T13:04:58.447Z,82.86
2022-11-16T13:07:30.842Z,82.11
2022-11-16T13:10:04.022Z,82.64
2022-11-16T13:12:31.532Z,80.96
2022-11-16T13:15:02.144Z,81.20
2022-11-16T13:17:34.809Z,79.73
2022-11-16T13:20:11.660Z,78.19
2022-11-16T13:22:46.807Z,79.90
2022-11-16T13:25:51.046Z,79.94
2022-11-16T13:28:24.374Z,78.21
2022-11-16T13:31:11.138Z,77.57
2022-11-16T13:33:51.070Z,78.35
2022-11-16T13:36:57.103Z,76.93
2022-11-16T13:39:58.652Z,77.45
2022-11-16T13:42:26.505Z,76.97
2022-11-16T13:44:53.891Z,77.37
2022-11-16T13:47:30.380Z,79.36
2022-11-16T13:50:02.420Z,81.52
2022-11-16T13:55:42.667Z,79.00
2022-11-16T13:58:12.507Z,79.95
2022-11-16T14:00:40.464Z,80.55
2022-11-16T14:03:15.899Z,80.45
2022-11-16T14:05:47.774Z,81.70
2022-11-16T14:08:20.446Z,81.04
2022-11-16T14:10:52.840Z,80.60
2022-11-16T14:13:48.316Z,80.33
2022-11-16T14:16:14.699Z,81.52
2022-11-16T14:18:47.707Z,81.75
2022-11-16T14:21:20.480Z,81.96
2022-11-16T14:24:05.402Z,80.80
2022-11-16T14:26:43.468Z,81.25
2022-11-16T14:29:12.917Z,81.03
2022-11-16T14:31:47.560Z,80.32
2022-11-16T14:34:20.423Z,79.95
2022-11-16T14:36:48.034Z,81.08
2022-11-16T14:39:29.222Z,78.97
2022-11-16T14:42:00.502Z,79.80
2022-11-16T14:44:31.302Z,78.19
2022-11-16T14:46:57.899Z,76.96
2022-11-16T14:49:31.274Z,78.49
2022-11-16T14:52:00.326Z,78.84
2022-11-16T14:54:32.767Z,78.32
2022-11-16T14:57:12.633Z,79.07
2022-11-16T14:59:39.141Z,80.04
2022-11-16T15:02:17.748Z,79.90
2022-11-16T15:04:44.567Z,82.18
2022-11-16T15:07:12.937Z,81.72
2022-11-16T15:09:44.247Z,82.39
2022-11-16T15:12:36.850Z,82.66
2022-11-16T15:15:12.459Z,85.71
2022-11-16T15:17:41.154Z,85.44
2022-11-16T15:20:13.531Z,87.17
2022-11-16T15:22:43.038Z,85.48
2022-11-16T15:25:28.385Z,86.03
2022-11-16T15:27:56.644Z,87.39
2022-11-16T15:30:27.253Z,89.05
2022-11-16T15:32:54.553Z,88.20
2022-11-16T15:35:33.897Z,89.48
2022-11-16T15:38:13.885Z,90.59
2022-11-16T15:40:44.554Z,92.68
2022-11-16T15:43:11.784Z,91.74
2022-11-16T15:45:38.700Z,93.26
2022-11-16T15:48:05.724Z,96.29
2022-11-16T15:50:32.321Z,98.03
2022-11-16T15:52:59.846Z,98.87
2022-11-16T15:55:35.567Z,100.00
2022-11-16T15:58:14.792Z,100.00
2022-11-16T16:00:41.942Z,100.00
2022-11-16T16:03:25.082Z,100.00
2022-11-16T16:05:52.628Z,100.00
2022-11-16T16:08:39.220Z,100.00
2022-11-16T16:11:15.956Z,100.00
2022-11-16T16:13:45.276Z,100.00
2022-11-16T16:16:36.085Z,100.00
2022-11-16T16:19:09.746Z,100.00
2022-11-16T16:21:44.769Z,100.00
2022-11-16T16:24:37.015Z,100.00
2022-11-16T16:27:18.956Z,100.00
2022-11-16T16:29:51.402Z,100.00
2022-11-16T16:32:31.459Z,100.00
2022-11-16T16:35:00.025Z,100.00
2022-11-16T16:37:28.644Z,100.00
2022-11-16T16:39:55.119Z,100.00
2022-11-16T16:42:21.638Z,100.00
2022-11-16T16:44:49.140Z,100.00
2022-11-16T16:47:17.431Z,100.00
2022-11-16T16:49:43.949Z,100.00
2022-11-16T16:52:12.564Z,100.00
2022-11-16T16:54:40.063Z,100.00
2022-11-16T16:57:06.688Z,100.00
2022-11-16T16:59:33.200Z,100.00
2022-11-16T17:01:59.883Z,100.00
2022-11-16T17:04:26.427Z,100.00
2022-11-16T17:06:53.869Z,100.00
2022-11-16T17:09:20.670Z,100.00
2022-11-16T17:11:47.836Z,100.00
2022-11-16T17:14:14.463Z,100.00
2022-11-16T17:16:40.981Z,100.00
2022-11-16T17:19:07.654Z,100.00
2022-11-16T17:21:34.134Z,100.00
2022-11-16T17:24:00.708Z,100.00
2022-11-16T17:26:29.391Z,100.00
2022-11-16T17:28:57.320Z,100.00
2022-11-16T17:31:25.908Z,100.00
2022-11-16T17:33:52.847Z,100.00
2022-11-16T17:36:19.495Z,100.00
2022-11-16T17:38:46.119Z,100.00
2022-11-16T17:41:15.643Z,100.00
2022-11-16T17:43:43.468Z,100.00
2022-11-16T17:46:15.496Z,100.00
2022-11-16T17:48:43.727Z,100.00
2022-11-16T17:51:15.405Z,100.00
2022-11-16T17:53:44.214Z,100.00
2022-11-16T17:56:12.374Z,100.00
2022-11-16T17:58:38.916Z,100.00
2022-11-16T18:01:05.664Z,100.00
2022-11-16T18:03:32.432Z,100.00
2022-11-16T18:06:11.039Z,100.00
2022-11-16T18:08:37.598Z,100.00
2022-11-16T18:11:17.933Z,100.00
2022-11-16T18:13:45.112Z,100.00
2022-11-16T18:16:17.008Z,100.00
2022-11-16T18:18:44.824Z,100.00
2022-11-16T18:21:17.220Z,100.00
2022-11-16T18:23:46.773Z,100.00
2022-11-16T18:26:16.041Z,100.00
2022-11-16T18:28:45.104Z,100.00
2022-11-16T18:31:15.236Z,100.00
2022-11-16T18:33:42.282Z,100.00
2022-11-16T18:36:09.782Z,100.00
2022-11-16T18:38:36.448Z,100.00
2022-11-16T18:41:03.771Z,100.00
2022-11-16T18:43:30.479Z,100.00
2022-11-16T18:45:56.974Z,100.00
2022-11-16T18:48:23.447Z,100.00
2022-11-16T18:50:49.915Z,100.00
2022-11-16T18:53:16.375Z,100.00
2022-11-16T18:55:42.850Z,100.00
2022-11-16T18:58:22.875Z,100.00
2022-11-16T19:01:05.234Z,100.00
2022-11-16T19:03:32.921Z,100.00
2022-11-16T19:06:01.584Z,100.00
2022-11-16T19:08:29.305Z,100.00
2022-11-16T19:10:56.200Z,100.00
2022-11-16T19:13:22.699Z,100.00
2022-11-16T19:15:50.080Z,100.00
2022-11-16T19:18:21.514Z,100.00
2022-11-16T19:20:48.405Z,100.00
2022-11-16T19:23:14.876Z,100.00
2022-11-16T19:25:41.328Z,100.00
2022-11-16T19:28:07.843Z,100.00
2022-11-16T19:30:34.390Z,100.00
2022-11-16T19:33:01.372Z,100.00
2022-11-16T19:35:27.981Z,100.00
2022-11-16T19:37:54.566Z,100.00
2022-11-16T19:40:24.968Z,100.00
2022-11-16T19:42:52.953Z,100.00
2022-11-16T19:45:19.604Z,100.00
2022-11-16T19:47:46.030Z,100.00
2022-11-16T19:50:12.476Z,100.00
2022-11-16T19:52:38.937Z,100.00
2022-11-16T19:55:05.766Z,100.00
2022-11-16T19:57:32.224Z,100.00
2022-11-16T19:59:58.741Z,100.00
2022-11-16T20:02:25.203Z,100.00
2022-11-16T20:04:51.696Z,100.00
2022-11-16T20:07:18.358Z,100.00
2022-11-16T20:09:48.121Z,100.00
2022-11-16T20:12:17.058Z,100.00
2022-11-16T20:14:43.547Z,100.00
2022-11-16T20:17:11.490Z,100.00
2022-11-16T20:19:37.928Z,100.00
2022-11-16T20:22:04.371Z,100.00
2022-11-16T20:24:30.972Z,100.00
2022-11-16T20:26:57.384Z,100.00
2022-11-16T20:29:23.915Z,100.00
2022-11-16T20:31:50.480Z,100.00
2022-11-16T20:34:18.450Z,100.00
2022-11-16T20:36:46.699Z,100.00
2022-11-16T20:39:15.385Z,100.00
2022-11-16T20:41:43.789Z,100.00
2022-11-16T20:44:16.498Z,100.00
2022-11-16T20:46:44.912Z,100.00
2022-11-16T20:49:11.937Z,100.00
2022-11-16T20:51:38.596Z,100.00
2022-11-16T20:54:05.137Z,100.00
2022-11-16T20:56:31.740Z,100.00
2022-11-16T20:58:59.383Z,100.00
2022-11-16T21:01:33.232Z,100.00
2022-11-16T21:04:02.023Z,100.00
2022-11-16T21:06:29.589Z,100.00
2022-11-16T21:08:56.378Z,100.00
2022-11-16T21:11:28.941Z,100.00
2022-11-16T21:14:14.672Z,100.00
2022-11-16T21:16:41.263Z,100.00
2022-11-16T21:19:07.918Z,100.00
2022-11-16T21:21:34.862Z,100.00
2022-11-16T21:24:01.365Z,100.00
2022-11-16T21:26:31.297Z,100.00
2022-11-16T21:28:59.216Z,100.00
2022-11-16T21:31:31.457Z,100.00
2022-11-16T21:34:00.592Z,100.00
2022-11-16T21:36:28.810Z,100.00
2022-11-16T21:38:55.551Z,100.00
2022-11-16T21:41:23.750Z,100.00
2022-11-16T21:43:50.275Z,100.00
2022-11-16T21:46:21.924Z,100.00
2022-11-16T21:48:50.867Z,100.00
2022-11-16T21:51:19.011Z,100.00
2022-11-16T21:53:46.085Z,100.00
2022-11-16T21:56:15.049Z,100.00
2022-11-16T21:58:42.014Z,100.00
2022-11-16T22:01:10.466Z,100.00
2022-11-16T22:03:38.106Z,100.00
2022-11-16T22:06:25.062Z,100.00
2022-11-16T22:08:52.080Z,100.00
2022-11-16T22:11:21.916Z,100.00
2022-11-16T22:13:49.730Z,100.00
2022-11-16T22:16:17.907Z,100.00
2022-11-16T22:18:44.618Z,100.00
2022-11-16T22:21:11.796Z,100.00
2022-11-16T22:23:38.905Z,100.00
2022-11-16T22:26:11.089Z,100.00
2022-11-16T22:28:38.467Z,100.00
2022-11-16T22:31:10.901Z,100.00
2022-11-16T22:33:37.990Z,100.00
2022-11-16T22:36:05.845Z,100.00
2022-11-16T22:38:33.370Z,100.00
2022-11-16T22:40:59.834Z,100.00
2022-11-16T22:43:29.673Z,100.00
2022-11-16T22:46:04.844Z,100.00
2022-11-16T22:48:33.201Z,100.00
2022-11-16T22:51:17.529Z,100.00
2022-11-16T22:53:44.058Z,100.00
2022-11-16T22:56:11.104Z,100.00
2022-11-16T22:58:38.859Z,100.00
2022-11-16T23:01:07.542Z,100.00
2022-11-16T23:03:35.211Z,100.00
2022-11-16T23:06:02.152Z,100.00
2022-11-16T23:08:28.682Z,100.00
2022-11-16T23:11:38.775Z,100.00
2022-11-16T23:14:26.023Z,100.00
2022-11-16T23:16:52.958Z,100.00
2022-11-16T23:19:39.933Z,100.00
2022-11-16T23:22:29.972Z,100.00
2022-11-16T23:25:14.957Z,100.00
2022-11-16T23:28:18.196Z,100.00
2022-11-16T23:30:44.655Z,100.00
2022-11-16T23:33:11.873Z,100.00
2022-11-16T23:35:38.340Z,100.00
2022-11-16T23:38:06.607Z,100.00
2022-11-16T23:40:38.752Z,100.00
2022-11-16T23:43:24.957Z,100.00
2022-11-16T23:45:51.425Z,100.00
2022-11-16T23:48:18.856Z,100.00
2022-11-16T23:50:45.879Z,100.00
2022-11-16T23:53:12.810Z,100.00
2022-11-16T23:55:40.074Z,100.00
2022-11-16T23:58:12.197Z,100.00
